Time;durP1;ratioP1;P1;durP2;ratioP2;P2;SDS_P1;SDS_P2;PMS_P1;PMS_P2;Temp;Humidity;BMP_temperature;BMP_pressure;BME280_temperature;BME280_humidity;BME280_pressure;Samples;Min_cycle;Max_cycle;Signal;HPM_P1;HPM_P2
2021/03/31 00:02:01;;;;;;;21.13;9.30;;;12.80;51.00;;;;;;4760662;30;20043;-77
2021/03/31 00:04:27;;;;;;;16.52;8.15;;;12.80;51.00;;;;;;4731285;30;20402;-75
2021/03/31 00:06:54;;;;;;;19.45;9.75;;;12.70;51.00;;;;;;4762923;30;20039;-74
2021/03/31 00:09:20;;;;;;;15.10;7.90;;;12.70;51.00;;;;;;4776387;30;20035;-74
2021/03/31 00:11:47;;;;;;;18.48;9.52;;;12.60;51.00;;;;;;4759769;30;20063;-74
2021/03/31 00:14:15;;;;;;;16.23;9.23;;;12.60;51.10;;;;;;4760747;30;20968;-74
2021/03/31 00:16:43;;;;;;;19.80;8.82;;;12.60;51.20;;;;;;4761222;30;20036;-74
2021/03/31 00:19:10;;;;;;;15.75;8.35;;;12.60;51.20;;;;;;4761423;30;20039;-74
2021/03/31 00:21:37;;;;;;;18.13;9.73;;;12.60;51.20;;;;;;4759445;30;20039;-74
2021/03/31 00:24:03;;;;;;;20.65;9.98;;;12.60;51.30;;;;;;4760686;30;20047;-74
2021/03/31 00:26:30;;;;;;;21.42;10.63;;;12.60;51.30;;;;;;4760112;30;20060;-75
2021/03/31 00:28:57;;;;;;;17.10;9.13;;;12.60;51.30;;;;;;4761377;30;20384;-74
2021/03/31 00:31:23;;;;;;;16.63;8.95;;;12.60;51.40;;;;;;4759704;30;20047;-74
2021/03/31 00:33:50;;;;;;;17.60;9.77;;;12.50;51.40;;;;;;4762652;30;20039;-74
2021/03/31 00:36:16;;;;;;;20.77;10.35;;;12.50;51.40;;;;;;4747079;30;20047;-74
2021/03/31 00:38:43;;;;;;;24.77;10.38;;;12.50;51.50;;;;;;4763586;30;20743;-74
2021/03/31 00:41:09;;;;;;;19.08;9.73;;;12.50;51.70;;;;;;4765407;30;20048;-74
2021/03/31 00:43:36;;;;;;;18.33;9.02;;;12.40;51.40;;;;;;4763343;30;20047;-75
2021/03/31 00:46:03;;;;;;;19.08;10.20;;;12.40;51.30;;;;;;4762591;30;20036;-76
2021/03/31 00:48:29;;;;;;;19.77;9.50;;;12.40;51.40;;;;;;4766362;30;20036;-75
2021/03/31 00:51:00;;;;;;;20.80;10.70;;;12.40;51.40;;;;;;4765026;30;20052;-73
2021/03/31 00:53:42;;;;;;;16.77;8.80;;;12.40;51.40;;;;;;4746595;30;20046;-75
2021/03/31 00:56:10;;;;;;;18.35;9.25;;;12.30;51.40;;;;;;4762011;30;20043;-74
2021/03/31 00:58:40;;;;;;;23.65;10.60;;;12.40;51.40;;;;;;4760623;30;20055;-78
2021/03/31 01:01:07;;;;;;;22.00;9.25;;;12.40;51.30;;;;;;4743016;30;20043;-75
2021/03/31 01:03:34;;;;;;;20.30;10.70;;;12.40;51.20;;;;;;4757488;30;20050;-76
2021/03/31 01:06:00;;;;;;;21.10;9.75;;;12.40;51.10;;;;;;4759472;30;20052;-74
2021/03/31 01:08:27;;;;;;;22.95;10.98;;;12.40;51.20;;;;;;4744056;30;20068;-75
2021/03/31 01:10:57;;;;;;;23.65;11.98;;;12.40;51.10;;;;;;4760491;30;20076;-79
2021/03/31 01:13:51;;;;;;;20.27;9.40;;;12.40;51.30;;;;;;4759477;30;20043;-80
2021/03/31 01:16:42;;;;;;;22.23;11.13;;;12.30;51.30;;;;;;4766349;30;20059;-79
2021/03/31 01:19:30;;;;;;;21.08;9.77;;;12.30;51.40;;;;;;4762213;30;20055;-78
2021/03/31 01:21:59;;;;;;;22.38;11.45;;;12.30;51.40;;;;;;4760450;30;20059;-78
2021/03/31 01:24:48;;;;;;;19.30;10.18;;;12.30;51.40;;;;;;4774038;30;20051;-78
2021/03/31 01:27:20;;;;;;;25.13;10.88;;;12.30;51.30;;;;;;4761557;30;20052;-80
2021/03/31 01:29:54;;;;;;;20.13;10.15;;;12.30;51.30;;;;;;4760042;30;20047;-78
2021/03/31 01:32:39;;;;;;;20.02;10.32;;;12.20;51.30;;;;;;4759376;30;20397;-79
2021/03/31 01:35:15;;;;;;;20.60;8.95;;;12.20;51.30;;;;;;4744836;30;20039;-78
2021/03/31 01:37:43;;;;;;;15.50;8.00;;;12.20;51.30;;;;;;4761188;30;20056;-79
2021/03/31 01:40:13;;;;;;;20.60;9.35;;;12.10;51.30;;;;;;4761651;30;20420;-79
2021/03/31 01:42:48;;;;;;;20.08;9.80;;;12.10;51.40;;;;;;4756303;30;20054;-78
2021/03/31 01:45:17;;;;;;;19.02;9.98;;;12.10;51.40;;;;;;4760354;30;20044;-75
2021/03/31 01:47:46;;;;;;;20.60;10.27;;;12.00;51.40;;;;;;4760373;30;20047;-75
2021/03/31 01:50:14;;;;;;;18.52;9.40;;;12.00;51.50;;;;;;4758726;30;20055;-75
2021/03/31 01:52:42;;;;;;;21.55;10.73;;;11.90;51.70;;;;;;4757923;30;20056;-75
2021/03/31 01:55:11;;;;;;;20.38;10.82;;;11.90;51.80;;;;;;4759607;30;20508;-75
2021/03/31 01:57:39;;;;;;;19.33;10.35;;;11.80;52.60;;;;;;4759850;30;20051;-75
2021/03/31 02:00:07;;;;;;;20.27;9.20;;;11.80;52.00;;;;;;4761060;30;20066;-75
2021/03/31 02:02:48;;;;;;;18.23;8.60;;;11.80;52.00;;;;;;4757956;30;20039;-75
2021/03/31 02:05:16;;;;;;;16.17;8.23;;;11.80;52.10;;;;;;4758223;30;20376;-74
2021/03/31 02:07:45;;;;;;;20.40;10.07;;;11.70;52.00;;;;;;4760673;30;20048;-75
2021/03/31 02:10:14;;;;;;;17.63;9.23;;;11.70;52.00;;;;;;4762344;30;20051;-76
2021/03/31 02:12:42;;;;;;;16.75;8.80;;;11.70;52.00;;;;;;4759951;30;20067;-75
2021/03/31 02:15:12;;;;;;;20.33;10.30;;;11.70;52.00;;;;;;4764751;29;20416;-75
2021/03/31 02:17:41;;;;;;;17.10;9.18;;;11.70;52.10;;;;;;4763897;30;20063;-75
2021/03/31 02:20:09;;;;;;;16.42;7.78;;;11.70;52.20;;;;;;4762993;30;20047;-75
2021/03/31 02:22:37;;;;;;;16.05;7.65;;;11.60;52.20;;;;;;4762160;30;20055;-76
2021/03/31 02:25:06;;;;;;;20.60;9.05;;;11.60;52.30;;;;;;4761167;30;20385;-74
2021/03/31 02:27:33;;;;;;;19.13;10.25;;;11.50;52.40;;;;;;4760181;30;20059;-74
2021/03/31 02:30:00;;;;;;;17.73;9.85;;;11.50;52.50;;;;;;4755339;30;20047;-76
2021/03/31 02:32:27;;;;;;;18.65;9.50;;;11.40;52.50;;;;;;4758980;30;20046;-75
2021/03/31 02:34:56;;;;;;;19.10;9.60;;;11.40;52.70;;;;;;4774419;29;20048;-75
2021/03/31 02:37:23;;;;;;;18.25;9.65;;;11.30;52.80;;;;;;4760289;30;20063;-74
2021/03/31 02:39:52;;;;;;;16.15;8.45;;;11.30;52.80;;;;;;4759766;30;20051;-74
2021/03/31 02:42:22;;;;;;;15.48;8.07;;;11.20;52.90;;;;;;4772536;29;20508;-79
2021/03/31 02:44:51;;;;;;;19.45;9.10;;;11.20;53.10;;;;;;4764433;30;20078;-81
2021/03/31 02:47:22;;;;;;;18.70;9.30;;;11.10;53.20;;;;;;4763439;30;20040;-81
2021/03/31 02:49:53;;;;;;;20.23;10.55;;;11.00;53.30;;;;;;4777842;29;20063;-80
2021/03/31 02:52:22;;;;;;;20.23;9.68;;;11.00;53.60;;;;;;4763271;30;20051;-81
2021/03/31 02:54:51;;;;;;;18.38;9.63;;;10.90;53.80;;;;;;4778666;30;20070;-79
2021/03/31 02:57:19;;;;;;;20.48;10.23;;;10.90;53.90;;;;;;4750143;30;20052;-83
2021/03/31 02:59:47;;;;;;;18.98;10.77;;;10.80;54.00;;;;;;4764607;30;20052;-83
2021/03/31 03:02:19;;;;;;;20.88;10.85;;;10.80;54.20;;;;;;4776281;30;20047;-81
2021/03/31 03:04:48;;;;;;;18.70;9.65;;;10.80;54.40;;;;;;4778077;29;20070;-82
2021/03/31 03:07:15;;;;;;;18.17;9.27;;;10.70;54.40;;;;;;4763265;30;20048;-81
2021/03/31 03:09:43;;;;;;;21.98;10.48;;;10.70;54.70;;;;;;4767620;30;20051;-81
2021/03/31 03:12:13;;;;;;;20.45;9.90;;;10.60;55.00;;;;;;4761655;30;20055;-82
2021/03/31 03:14:43;;;;;;;19.85;10.45;;;10.60;55.30;;;;;;4764510;29;20040;-79
2021/03/31 03:17:09;;;;;;;18.42;10.65;;;10.50;55.50;;;;;;4762162;30;20059;-79
2021/03/31 03:19:36;;;;;;;17.45;9.88;;;10.50;55.90;;;;;;4761318;30;20043;-80
2021/03/31 03:22:03;;;;;;;19.15;9.25;;;10.40;56.00;;;;;;4744850;30;20126;-80
2021/03/31 03:24:30;;;;;;;21.63;11.18;;;10.40;56.10;;;;;;4763920;30;20048;-79
2021/03/31 03:26:58;;;;;;;18.63;9.80;;;10.30;56.30;;;;;;4762295;30;20068;-79
2021/03/31 03:29:26;;;;;;;22.67;12.18;;;10.30;56.50;;;;;;4764252;30;20052;-78
2021/03/31 03:31:53;;;;;;;19.95;11.18;;;10.30;56.90;;;;;;4775176;30;20419;-79
2021/03/31 03:34:21;;;;;;;21.27;10.80;;;10.20;57.00;;;;;;4748282;30;20136;-78
2021/03/31 03:36:47;;;;;;;19.42;10.88;;;10.20;57.00;;;;;;4763993;30;20047;-81
2021/03/31 03:39:14;;;;;;;19.52;10.63;;;10.10;57.20;;;;;;4763981;29;20491;-79
2021/03/31 03:41:43;;;;;;;20.23;11.32;;;10.10;58.10;;;;;;4750531;30;20052;-75
2021/03/31 03:44:09;;;;;;;19.42;10.68;;;10.00;57.80;;;;;;4761095;30;20062;-76
2021/03/31 03:46:37;;;;;;;19.52;10.50;;;10.00;57.90;;;;;;4759692;30;20031;-76
2021/03/31 03:49:05;;;;;;;21.55;11.27;;;9.90;58.00;;;;;;4759584;30;20051;-76
2021/03/31 03:51:33;;;;;;;23.17;12.32;;;10.00;58.20;;;;;;4757754;30;20530;-75
2021/03/31 03:54:00;;;;;;;22.25;12.48;;;9.90;58.20;;;;;;4761222;30;21415;-75
2021/03/31 03:56:26;;;;;;;21.60;11.93;;;9.90;58.30;;;;;;4775070;30;20411;-75
2021/03/31 03:58:53;;;;;;;22.38;10.95;;;9.80;58.30;;;;;;4746170;30;20052;-75
2021/03/31 04:01:19;;;;;;;17.17;9.15;;;9.80;58.40;;;;;;4760669;30;20949;-75
2021/03/31 04:03:46;;;;;;;24.45;11.32;;;9.70;58.40;;;;;;4760425;30;20064;-75
2021/03/31 04:06:13;;;;;;;21.75;11.88;;;9.70;58.60;;;;;;4761911;30;20047;-77
2021/03/31 04:08:39;;;;;;;20.48;10.88;;;9.70;58.70;;;;;;4763080;30;20039;-77
2021/03/31 04:11:06;;;;;;;22.88;11.00;;;9.60;58.80;;;;;;4760232;30;20056;-78
2021/03/31 04:13:34;;;;;;;20.13;10.90;;;9.60;59.10;;;;;;4759589;30;20062;-78
2021/03/31 04:16:10;;;;;;;21.00;11.73;;;9.60;59.30;;;;;;4762118;30;20055;-77
2021/03/31 04:18:40;;;;;;;19.48;10.60;;;9.60;59.70;;;;;;4761914;30;20063;-78
2021/03/31 04:21:09;;;;;;;21.60;10.50;;;9.60;59.60;;;;;;4750884;30;20040;-78
2021/03/31 04:23:36;;;;;;;24.17;12.43;;;9.50;59.70;;;;;;4747624;30;20048;-78
2021/03/31 04:26:03;;;;;;;19.55;10.20;;;9.50;59.90;;;;;;4746938;30;20051;-78
2021/03/31 04:28:30;;;;;;;20.17;11.00;;;9.50;59.80;;;;;;4761124;30;20313;-78
2021/03/31 04:30:58;;;;;;;26.92;12.50;;;9.50;59.80;;;;;;4749066;30;20046;-78
2021/03/31 04:33:25;;;;;;;22.80;11.55;;;9.60;60.00;;;;;;4759985;30;20060;-78
2021/03/31 04:35:55;;;;;;;23.23;11.40;;;9.50;60.00;;;;;;4761825;29;20055;-78
2021/03/31 04:38:21;;;;;;;20.98;10.48;;;9.60;60.10;;;;;;4762613;30;20055;-77
2021/03/31 04:41:02;;;;;;;22.48;10.65;;;9.50;60.00;;;;;;4762800;30;20059;-78
2021/03/31 04:43:31;;;;;;;24.52;13.05;;;9.60;60.00;;;;;;4762518;30;20056;-78
2021/03/31 04:45:59;;;;;;;23.45;12.10;;;9.60;60.00;;;;;;4764562;30;20058;-78
2021/03/31 04:48:26;;;;;;;18.77;10.57;;;9.60;60.20;;;;;;4764548;30;20059;-78
2021/03/31 04:50:53;;;;;;;19.63;10.40;;;9.50;60.30;;;;;;4765042;30;20527;-77
2021/03/31 04:53:20;;;;;;;23.63;11.38;;;9.40;60.50;;;;;;4764931;30;20055;-79
2021/03/31 04:55:46;;;;;;;18.65;10.32;;;9.40;60.80;;;;;;4761407;30;20044;-78
2021/03/31 04:58:13;;;;;;;20.95;10.80;;;9.30;60.90;;;;;;4763272;30;20694;-78
2021/03/31 05:00:39;;;;;;;22.50;12.25;;;9.20;61.20;;;;;;4764406;30;20059;-78
2021/03/31 05:03:07;;;;;;;22.27;11.57;;;9.20;61.60;;;;;;4767381;30;20058;-78
2021/03/31 05:05:33;;;;;;;22.58;11.10;;;9.20;61.80;;;;;;4732940;30;20143;-78
2021/03/31 05:08:00;;;;;;;27.65;13.70;;;9.20;61.80;;;;;;4763336;30;20048;-78
2021/03/31 05:10:27;;;;;;;29.35;15.20;;;9.20;61.70;;;;;;4776835;30;20059;-79
2021/03/31 05:12:54;;;;;;;28.00;16.40;;;9.10;62.00;;;;;;4760857;30;20067;-79
2021/03/31 05:15:21;;;;;;;26.77;14.38;;;9.00;62.30;;;;;;4761417;30;20086;-78
2021/03/31 05:17:47;;;;;;;27.63;14.02;;;9.00;62.50;;;;;;4762630;30;20039;-79
2021/03/31 05:20:15;;;;;;;21.95;11.82;;;8.90;62.70;;;;;;4760779;30;20870;-78
2021/03/31 05:22:41;;;;;;;25.02;13.52;;;8.80;62.80;;;;;;4759326;30;20058;-78
2021/03/31 05:25:09;;;;;;;24.00;12.07;;;8.80;62.90;;;;;;4761881;30;20051;-78
2021/03/31 05:27:36;;;;;;;20.58;11.10;;;8.80;63.00;;;;;;4761477;30;20583;-78
2021/03/31 05:30:07;;;;;;;20.20;10.02;;;8.70;63.00;;;;;;4761775;30;20052;-78
2021/03/31 05:32:34;;;;;;;20.08;10.57;;;8.70;63.10;;;;;;4760886;30;20066;-78
2021/03/31 05:35:02;;;;;;;23.13;12.57;;;8.70;63.10;;;;;;4747140;30;20047;-78
2021/03/31 05:37:29;;;;;;;22.70;12.40;;;8.70;63.20;;;;;;4763688;30;20064;-78
2021/03/31 05:39:56;;;;;;;22.42;10.80;;;8.70;63.20;;;;;;4763055;29;20060;-79
2021/03/31 05:42:22;;;;;;;21.90;11.85;;;8.70;63.20;;;;;;4759115;30;20059;-78
2021/03/31 05:44:50;;;;;;;18.55;10.35;;;8.80;63.30;;;;;;4762247;30;20047;-78
2021/03/31 05:47:37;;;;;;;19.92;11.50;;;8.80;63.20;;;;;;4745392;30;20040;-79
2021/03/31 05:50:06;;;;;;;20.23;11.15;;;8.90;63.20;;;;;;4749504;30;20041;-78
2021/03/31 05:52:33;;;;;;;22.42;11.88;;;8.90;63.30;;;;;;4760148;30;20044;-78
2021/03/31 05:55:02;;;;;;;19.80;9.40;;;8.90;63.30;;;;;;4760827;30;20416;-78
2021/03/31 05:57:32;;;;;;;21.98;10.50;;;9.00;63.20;;;;;;4762004;30;20067;-78
2021/03/31 06:00:00;;;;;;;26.48;12.98;;;9.10;63.40;;;;;;4761125;30;20040;-78
2021/03/31 06:02:28;;;;;;;19.85;10.85;;;9.20;63.50;;;;;;4759811;30;20047;-78
2021/03/31 06:04:55;;;;;;;21.60;10.57;;;9.40;63.40;;;;;;4762140;30;20051;-78
2021/03/31 06:07:21;;;;;;;21.30;10.95;;;9.50;63.20;;;;;;4763131;30;20050;-78
2021/03/31 06:10:09;;;;;;;21.95;12.65;;;9.60;62.90;;;;;;4760511;30;20055;-78
2021/03/31 06:12:36;;;;;;;30.15;12.68;;;9.70;63.20;;;;;;4759086;30;20512;-78
2021/03/31 06:15:16;;;;;;;21.42;12.63;;;9.80;63.00;;;;;;4762085;30;20072;-78
2021/03/31 06:17:51;;;;;;;18.98;10.50;;;10.00;63.30;;;;;;4763074;30;20040;-78
2021/03/31 06:20:45;;;;;;;19.27;9.40;;;10.10;63.20;;;;;;4773623;30;20408;-78
2021/03/31 06:26:24;;;;;;;16.80;9.18;;;10.50;62.80;;;;;;4760151;30;20503;-78
2021/03/31 06:29:03;;;;;;;19.02;9.38;;;10.70;62.30;;;;;;4773961;30;20036;-78
2021/03/31 06:31:33;;;;;;;19.13;9.02;;;11.00;62.00;;;;;;4759676;30;20062;-78
2021/03/31 06:34:05;;;;;;;17.27;8.73;;;11.20;61.60;;;;;;4759929;30;20398;-78
2021/03/31 06:36:50;;;;;;;18.42;10.63;;;11.40;61.20;;;;;;4759283;30;20051;-78
2021/03/31 06:39:32;;;;;;;18.30;9.82;;;11.60;60.80;;;;;;4760715;30;20051;-78
2021/03/31 06:42:10;;;;;;;18.70;10.15;;;11.80;60.40;;;;;;4771637;29;20044;-77
2021/03/31 06:44:52;;;;;;;18.63;10.60;;;12.00;60.10;;;;;;4759526;30;20048;-78
2021/03/31 06:47:29;;;;;;;20.65;10.88;;;12.20;59.80;;;;;;4758945;30;20043;-78
2021/03/31 06:49:59;;;;;;;20.63;11.15;;;12.30;59.40;;;;;;4759565;30;20067;-78
2021/03/31 06:52:25;;;;;;;21.33;11.77;;;12.50;59.10;;;;;;4756861;30;20055;-78
2021/03/31 06:54:59;;;;;;;19.48;12.10;;;12.70;58.80;;;;;;4759691;30;20062;-78
2021/03/31 06:57:31;;;;;;;23.13;11.70;;;12.90;58.60;;;;;;4775403;29;20058;-78
2021/03/31 07:00:13;;;;;;;18.80;9.63;;;13.00;58.10;;;;;;4762721;30;20054;-78
2021/03/31 07:02:46;;;;;;;18.50;10.95;;;13.20;58.00;;;;;;4760090;30;20054;-78
2021/03/31 07:05:13;;;;;;;18.17;10.48;;;13.30;57.80;;;;;;4764719;29;20603;-77
2021/03/31 07:07:44;;;;;;;18.92;10.50;;;13.50;57.70;;;;;;4762868;30;20063;-77
2021/03/31 07:10:13;;;;;;;21.00;11.02;;;13.60;57.40;;;;;;4763226;30;20412;-78
2021/03/31 07:12:47;;;;;;;18.60;10.98;;;13.80;57.20;;;;;;4761086;30;20068;-78
2021/03/31 07:15:17;;;;;;;19.38;10.98;;;13.90;56.80;;;;;;4750076;30;20412;-78
2021/03/31 07:17:49;;;;;;;24.88;13.90;;;14.10;56.50;;;;;;4764283;30;20064;-77
2021/03/31 07:20:16;;;;;;;21.33;12.35;;;14.20;56.00;;;;;;4764402;30;20063;-78
2021/03/31 07:22:43;;;;;;;20.83;12.40;;;14.30;55.70;;;;;;4762482;30;20048;-78
2021/03/31 07:25:11;;;;;;;19.60;11.18;;;14.40;55.50;;;;;;4764401;30;20055;-78
2021/03/31 07:27:39;;;;;;;19.20;9.80;;;14.60;55.40;;;;;;4761966;30;20059;-78
2021/03/31 07:30:11;;;;;;;18.73;11.32;;;14.70;55.20;;;;;;4766220;29;20066;-77
2021/03/31 07:32:58;;;;;;;;;;;14.90;55.00;;;;;;4745874;30;20048;-78
2021/03/31 07:35:27;;;;;;;19.15;10.55;;;15.00;54.60;;;;;;4763783;30;20748;-78
2021/03/31 07:37:58;;;;;;;17.65;11.70;;;15.10;54.20;;;;;;4765149;29;20052;-79
2021/03/31 07:40:26;;;;;;;18.00;10.05;;;15.20;54.00;;;;;;4763938;29;20051;-79
2021/03/31 07:43:10;;;;;;;19.20;10.57;;;15.40;53.60;;;;;;4762006;30;20054;-79
2021/03/31 07:45:42;;;;;;;19.33;10.73;;;15.40;53.40;;;;;;4762825;30;20048;-78
2021/03/31 07:48:10;;;;;;;17.33;11.23;;;15.60;53.30;;;;;;4762860;30;20048;-78
2021/03/31 07:50:36;;;;;;;20.85;12.25;;;15.80;53.00;;;;;;4747772;30;20043;-78
2021/03/31 07:53:06;;;;;;;18.60;12.57;;;16.10;52.40;;;;;;4737425;30;20048;-77
2021/03/31 07:55:37;;;;;;;18.42;12.30;;;16.40;51.70;;;;;;4763654;30;20051;-78
2021/03/31 07:58:30;;;;;;;24.73;14.32;;;16.70;51.20;;;;;;4763072;30;20384;-78
2021/03/31 08:01:03;;;;;;;18.52;12.88;;;17.00;49.90;;;;;;4766395;30;20079;-79
2021/03/31 08:03:32;;;;;;;19.25;12.70;;;17.10;49.80;;;;;;4761720;30;20039;-78
2021/03/31 08:06:13;;;;;;;18.00;12.02;;;17.20;49.90;;;;;;4762116;30;20592;-79
2021/03/31 08:08:49;;;;;;;19.10;14.15;;;17.30;49.70;;;;;;4762515;30;20043;-77
2021/03/31 08:11:39;;;;;;;23.42;13.48;;;17.30;49.40;;;;;;4764674;30;20487;-77
2021/03/31 08:14:10;;;;;;;21.77;14.13;;;17.40;49.00;;;;;;4769872;29;20043;-77
2021/03/31 08:16:43;;;;;;;24.95;14.48;;;17.50;49.00;;;;;;4767381;29;20059;-78
2021/03/31 08:19:19;;;;;;;22.02;15.10;;;17.60;48.70;;;;;;4765241;30;20044;-77
2021/03/31 08:21:52;;;;;;;24.20;15.38;;;17.70;48.50;;;;;;4774129;29;20070;-77
2021/03/31 08:24:43;;;;;;;23.48;14.52;;;17.80;48.30;;;;;;4748620;30;20031;-77
2021/03/31 08:27:10;;;;;;;16.45;12.15;;;17.90;47.80;;;;;;4763084;30;20062;-77
2021/03/31 08:29:36;;;;;;;18.80;12.23;;;18.10;47.90;;;;;;4762009;30;20051;-77
2021/03/31 08:32:07;;;;;;;19.90;12.55;;;18.20;47.70;;;;;;4760251;30;20064;-77
2021/03/31 08:34:35;;;;;;;19.80;12.52;;;18.30;47.50;;;;;;4746917;30;20590;-77
2021/03/31 08:37:04;;;;;;;20.30;14.25;;;18.50;47.40;;;;;;4765207;30;20055;-77
2021/03/31 08:39:31;;;;;;;21.58;13.60;;;18.60;47.10;;;;;;4762648;29;20066;-77
2021/03/31 08:41:59;;;;;;;19.92;13.07;;;18.70;46.80;;;;;;4759547;30;20617;-77
2021/03/31 08:44:32;;;;;;;18.85;13.63;;;18.80;46.50;;;;;;4762635;30;20054;-77
2021/03/31 08:47:09;;;;;;;24.52;16.13;;;19.00;46.40;;;;;;4764623;30;20043;-77
2021/03/31 08:49:37;;;;;;;21.05;15.07;;;19.10;45.80;;;;;;4761554;30;20483;-77
2021/03/31 08:52:07;;;;;;;21.20;15.75;;;19.20;45.70;;;;;;4764785;30;20055;-77
2021/03/31 08:54:45;;;;;;;23.50;13.93;;;19.30;45.60;;;;;;4773187;30;20511;-77
2021/03/31 08:57:31;;;;;;;18.58;12.95;;;19.40;45.30;;;;;;4763682;30;20128;-78
2021/03/31 09:00:00;;;;;;;19.08;13.10;;;19.60;45.20;;;;;;4763533;30;20056;-78
2021/03/31 09:02:38;;;;;;;16.42;11.88;;;19.70;45.00;;;;;;4759076;30;20046;-75
2021/03/31 09:05:06;;;;;;;24.73;14.93;;;19.80;45.00;;;;;;4761239;30;20044;-77
2021/03/31 09:07:33;;;;;;;23.05;14.20;;;19.90;44.30;;;;;;4763473;29;20054;-76
2021/03/31 09:10:00;;;;;;;23.58;13.88;;;20.10;44.20;;;;;;4762866;30;20118;-75
2021/03/31 09:12:29;;;;;;;22.08;13.68;;;20.20;44.00;;;;;;4743340;30;20074;-75
2021/03/31 09:14:58;;;;;;;19.35;12.25;;;20.30;44.00;;;;;;4774655;30;20058;-77
2021/03/31 09:17:35;;;;;;;22.00;13.80;;;20.50;44.70;;;;;;4747270;30;20055;-76
2021/03/31 09:20:05;;;;;;;24.42;13.82;;;20.70;43.70;;;;;;4760447;30;20048;-76
2021/03/31 09:22:34;;;;;;;18.08;11.57;;;20.80;43.40;;;;;;4772148;30;20047;-76
2021/03/31 09:25:03;;;;;;;16.13;11.02;;;21.00;43.10;;;;;;4761440;30;20579;-77
2021/03/31 09:27:33;;;;;;;18.33;11.77;;;21.10;43.10;;;;;;4761001;30;20040;-77
2021/03/31 09:30:04;;;;;;;20.42;13.40;;;21.20;43.00;;;;;;4760353;30;20040;-76
2021/03/31 09:32:36;;;;;;;18.35;13.68;;;21.30;42.50;;;;;;4758447;30;20036;-75
2021/03/31 09:35:14;;;;;;;20.52;14.80;;;21.40;42.40;;;;;;4747021;30;20035;-75
2021/03/31 09:37:45;;;;;;;32.67;15.48;;;21.50;41.90;;;;;;4760172;30;20131;-76
2021/03/31 09:40:19;;;;;;;21.45;14.93;;;21.60;41.60;;;;;;4759847;30;20059;-75
2021/03/31 09:42:46;;;;;;;24.17;16.83;;;21.60;41.50;;;;;;4759163;30;20052;-75
2021/03/31 09:45:13;;;;;;;20.85;13.90;;;21.70;41.50;;;;;;4762020;30;20882;-75
2021/03/31 09:47:41;;;;;;;20.23;12.90;;;21.80;41.30;;;;;;4744090;30;20043;-75
2021/03/31 09:50:10;;;;;;;22.58;15.00;;;21.90;41.20;;;;;;4745086;30;20048;-75
2021/03/31 09:52:39;;;;;;;23.00;14.52;;;22.00;40.50;;;;;;4758655;30;20044;-74
2021/03/31 09:55:09;;;;;;;20.23;13.05;;;22.10;40.60;;;;;;4759840;30;20066;-75
2021/03/31 09:57:37;;;;;;;19.38;13.73;;;22.20;40.70;;;;;;4760817;30;20051;-75
2021/03/31 10:00:08;;;;;;;24.52;15.70;;;22.40;40.70;;;;;;4759604;30;20044;-75
2021/03/31 10:02:42;;;;;;;26.00;15.35;;;22.60;40.80;;;;;;4758005;30;20051;-74
2021/03/31 10:05:22;;;;;;;19.70;12.85;;;22.70;40.30;;;;;;4772402;30;20036;-75
2021/03/31 10:08:21;;;;;;;19.90;13.38;;;22.80;40.60;;;;;;4759567;30;20051;-77
2021/03/31 10:10:56;;;;;;;21.92;14.60;;;22.90;40.70;;;;;;4758183;30;20500;-74
2021/03/31 10:13:24;;;;;;;19.17;14.75;;;23.00;40.70;;;;;;4758782;30;20063;-76
2021/03/31 10:16:00;;;;;;;22.83;15.35;;;23.20;40.20;;;;;;4747040;30;20040;-76
2021/03/31 10:18:29;;;;;;;22.20;14.07;;;23.40;40.10;;;;;;4759553;30;20062;-75
2021/03/31 10:21:00;;;;;;;21.15;15.38;;;23.60;40.20;;;;;;4758839;30;20063;-75
2021/03/31 10:23:31;;;;;;;20.00;15.70;;;23.80;39.60;;;;;;4742712;30;20048;-76
2021/03/31 10:26:30;;;;;;;19.60;12.48;;;23.90;39.50;;;;;;4760053;30;20048;-76
2021/03/31 10:29:01;;;;;;;20.58;14.60;;;24.20;39.40;;;;;;4739028;30;20047;-77
2021/03/31 10:31:34;;;;;;;19.85;14.65;;;24.30;38.80;;;;;;4743693;30;20040;-76
2021/03/31 10:34:02;;;;;;;22.05;16.90;;;24.60;38.70;;;;;;4773192;29;20059;-76
2021/03/31 10:36:51;;;;;;;19.88;14.68;;;24.90;37.50;;;;;;4762781;30;20051;-75
2021/03/31 10:50:01;;;;;;;18.70;12.80;;;26.60;36.20;;;;;;4763810;30;20044;-76
2021/03/31 10:52:30;;;;;;;17.05;13.50;;;26.90;35.20;;;;;;4761300;30;20044;-77
2021/03/31 10:54:57;;;;;;;22.48;12.95;;;27.20;34.90;;;;;;4748011;30;20043;-77
2021/03/31 10:57:23;;;;;;;19.50;12.50;;;27.60;34.00;;;;;;4747348;30;20035;-78
2021/03/31 10:59:50;;;;;;;18.70;14.63;;;27.80;33.90;;;;;;4732008;30;20052;-78
2021/03/31 11:02:16;;;;;;;17.25;14.13;;;28.30;32.80;;;;;;4758083;30;20044;-77
2021/03/31 11:04:44;;;;;;;16.95;12.05;;;28.60;32.10;;;;;;4762777;30;20050;-75
2021/03/31 11:07:10;;;;;;;18.00;12.60;;;29.00;32.40;;;;;;4762021;30;20491;-76
2021/03/31 11:09:40;;;;;;;19.77;14.25;;;29.30;32.00;;;;;;4747752;30;20043;-76
2021/03/31 11:12:08;;;;;;;18.63;14.63;;;29.50;30.70;;;;;;4762683;30;20067;-76
2021/03/31 11:14:35;;;;;;;18.90;14.52;;;29.70;30.70;;;;;;4761035;30;20055;-76
2021/03/31 11:17:05;;;;;;;17.00;13.32;;;30.00;30.40;;;;;;4762982;30;20054;-76
2021/03/31 11:27:48;;;;;;;20.52;16.73;;;30.90;29.80;;;;;;4762486;30;20062;-77
2021/03/31 11:30:16;;;;;;;19.95;15.27;;;31.10;29.60;;;;;;4747667;30;20059;-76
2021/03/31 11:32:43;;;;;;;18.15;14.15;;;31.30;29.20;;;;;;4760267;30;20051;-77
2021/03/31 11:35:10;;;;;;;19.25;14.15;;;31.40;28.70;;;;;;4762218;30;20055;-76
2021/03/31 11:37:37;;;;;;;18.73;14.68;;;31.70;28.70;;;;;;4762191;30;20060;-77
2021/03/31 11:40:05;;;;;;;17.23;12.93;;;31.90;27.90;;;;;;4761743;30;20056;-77
2021/03/31 11:42:32;;;;;;;17.33;12.10;;;32.00;28.20;;;;;;4774247;29;20063;-77
2021/03/31 11:44:58;;;;;;;16.10;11.80;;;32.20;28.10;;;;;;4763451;30;20047;-76
2021/03/31 11:47:24;;;;;;;14.77;12.85;;;32.30;27.90;;;;;;4764132;30;20051;-76
2021/03/31 11:49:51;;;;;;;17.85;13.45;;;32.50;27.80;;;;;;4764465;30;20353;-77
2021/03/31 11:52:18;;;;;;;16.58;12.90;;;32.70;27.60;;;;;;4746348;30;20054;-77
2021/03/31 11:54:44;;;;;;;12.02;10.73;;;33.00;27.20;;;;;;4762366;30;20047;-77
2021/03/31 11:57:11;;;;;;;16.63;11.57;;;33.20;27.10;;;;;;4761901;30;20055;-77
2021/03/31 11:59:37;;;;;;;14.50;12.00;;;33.40;27.10;;;;;;4761631;30;20064;-76
2021/03/31 12:02:04;;;;;;;15.27;11.20;;;33.60;26.90;;;;;;4744821;30;20063;-76
2021/03/31 12:04:30;;;;;;;16.55;11.98;;;33.80;26.80;;;;;;4760069;30;20063;-77
2021/03/31 12:06:58;;;;;;;18.08;13.07;;;34.00;26.70;;;;;;4761497;29;20056;-76
2021/03/31 12:09:25;;;;;;;14.35;12.07;;;34.30;26.30;;;;;;4760557;30;20036;-79
2021/03/31 12:11:51;;;;;;;15.27;11.90;;;34.60;25.90;;;;;;4759906;30;20067;-79
2021/03/31 12:14:18;;;;;;;18.90;12.50;;;34.70;25.40;;;;;;4760851;30;20446;-79
2021/03/31 12:16:45;;;;;;;18.38;12.43;;;34.70;25.70;;;;;;4761675;30;20040;-79
2021/03/31 12:19:11;;;;;;;18.08;13.57;;;34.80;25.10;;;;;;4763096;30;20435;-79
2021/03/31 12:21:40;;;;;;;15.38;12.10;;;35.00;25.10;;;;;;4760709;30;20407;-79
2021/03/31 12:24:07;;;;;;;19.98;13.23;;;35.00;25.30;;;;;;4745626;30;20071;-79
2021/03/31 12:26:34;;;;;;;15.07;12.35;;;35.20;24.80;;;;;;4759224;30;20048;-79
2021/03/31 12:29:01;;;;;;;18.77;14.23;;;35.20;25.00;;;;;;4761674;30;20051;-79
2021/03/31 12:31:27;;;;;;;17.15;13.18;;;35.40;25.00;;;;;;4760827;30;20822;-79
2021/03/31 12:33:54;;;;;;;13.05;11.25;;;35.50;25.00;;;;;;4761376;30;20047;-79
2021/03/31 12:36:20;;;;;;;16.27;12.35;;;35.70;24.90;;;;;;4762039;30;20042;-79
2021/03/31 12:38:47;;;;;;;14.73;11.50;;;35.80;25.00;;;;;;4763373;30;20071;-79
2021/03/31 12:41:13;;;;;;;14.20;11.65;;;36.00;24.70;;;;;;4762355;30;20054;-79
2021/03/31 12:43:40;;;;;;;14.32;11.02;;;36.10;24.40;;;;;;4760695;30;20054;-79
2021/03/31 12:46:06;;;;;;;12.15;10.48;;;36.30;24.70;;;;;;4760938;30;20059;-80
2021/03/31 12:48:33;;;;;;;16.08;12.32;;;36.40;24.30;;;;;;4761777;30;20062;-80
2021/03/31 12:51:04;;;;;;;14.35;11.80;;;36.60;24.90;;;;;;4746517;30;20630;-81
2021/03/31 12:53:34;;;;;;;21.30;18.35;;;36.80;24.30;;;;;;4747887;30;20083;-80
2021/03/31 12:56:02;;;;;;;17.10;13.82;;;37.00;24.10;;;;;;4775034;29;20063;-80
2021/03/31 12:58:28;;;;;;;14.10;12.48;;;37.00;24.10;;;;;;4761097;30;20062;-79
2021/03/31 13:00:59;;;;;;;16.38;11.93;;;37.00;23.80;;;;;;4762886;30;20050;-79
2021/03/31 13:03:26;;;;;;;14.70;12.98;;;37.00;24.00;;;;;;4763491;30;20043;-79
2021/03/31 13:05:52;;;;;;;18.10;11.65;;;37.00;23.60;;;;;;4764199;30;20126;-79
2021/03/31 13:08:19;;;;;;;12.13;10.82;;;37.10;23.60;;;;;;4764656;30;20050;-79